sensor_id;sensor_type;location;lat;lon;timestamp;P1;durP1;ratioP1;P2;durP2;ratioP2
8819;SDS011;4446;50.876;4.736;2024-01-30T00:01:11;5.10;;;3.15;;
8819;SDS011;4446;50.876;4.736;2024-01-30T00:03:38;4.47;;;2.90;;
8819;SDS011;4446;50.876;4.736;2024-01-30T00:06:05;4.80;;;3.33;;
8819;SDS011;4446;50.876;4.736;2024-01-30T00:08:33;3.50;;;3.05;;
8819;SDS011;4446;50.876;4.736;2024-01-30T00:11:00;4.65;;;3.22;;
8819;SDS011;4446;50.876;4.736;2024-01-30T00:13:28;5.43;;;3.20;;
8819;SDS011;4446;50.876;4.736;2024-01-30T00:15:55;3.83;;;3.05;;
8819;SDS011;4446;50.876;4.736;2024-01-30T00:18:23;4.90;;;3.13;;
8819;SDS011;4446;50.876;4.736;2024-01-30T00:20:50;5.38;;;3.50;;
8819;SDS011;4446;50.876;4.736;2024-01-30T00:23:17;5.95;;;3.45;;
8819;SDS011;4446;50.876;4.736;2024-01-30T00:25:44;7.88;;;3.58;;
8819;SDS011;4446;50.876;4.736;2024-01-30T00:28:11;3.75;;;3.03;;
8819;SDS011;4446;50.876;4.736;2024-01-30T00:30:39;3.35;;;2.97;;
8819;SDS011;4446;50.876;4.736;2024-01-30T00:33:06;5.60;;;3.35;;
8819;SDS011;4446;50.876;4.736;2024-01-30T00:35:34;4.65;;;2.90;;
8819;SDS011;4446;50.876;4.736;2024-01-30T00:38:01;5.18;;;3.33;;
8819;SDS011;4446;50.876;4.736;2024-01-30T00:40:28;4.35;;;2.90;;
8819;SDS011;4446;50.876;4.736;2024-01-30T00:42:55;3.72;;;3.22;;
8819;SDS011;4446;50.876;4.736;2024-01-30T00:45:22;4.28;;;2.90;;
8819;SDS011;4446;50.876;4.736;2024-01-30T00:47:50;5.45;;;3.03;;
8819;SDS011;4446;50.876;4.736;2024-01-30T00:50:17;4.65;;;3.20;;
8819;SDS011;4446;50.876;4.736;2024-01-30T00:52:44;3.83;;;3.40;;
8819;SDS011;4446;50.876;4.736;2024-01-30T00:55:11;5.00;;;3.33;;
8819;SDS011;4446;50.876;4.736;2024-01-30T00:57:39;4.00;;;2.85;;
8819;SDS011;4446;50.876;4.736;2024-01-30T01:00:07;4.13;;;3.17;;
8819;SDS011;4446;50.876;4.736;2024-01-30T01:02:34;6.00;;;3.50;;
8819;SDS011;4446;50.876;4.736;2024-01-30T01:05:03;5.18;;;3.38;;
8819;SDS011;4446;50.876;4.736;2024-01-30T01:07:30;6.60;;;3.40;;
8819;SDS011;4446;50.876;4.736;2024-01-30T01:09:57;5.97;;;3.30;;
8819;SDS011;4446;50.876;4.736;2024-01-30T01:12:24;4.00;;;2.85;;
8819;SDS011;4446;50.876;4.736;2024-01-30T01:14:51;5.75;;;3.30;;
8819;SDS011;4446;50.876;4.736;2024-01-30T01:17:18;4.78;;;3.45;;
8819;SDS011;4446;50.876;4.736;2024-01-30T01:19:45;4.25;;;2.92;;
8819;SDS011;4446;50.876;4.736;2024-01-30T01:22:14;5.22;;;3.20;;
8819;SDS011;4446;50.876;4.736;2024-01-30T01:24:42;6.28;;;3.13;;
8819;SDS011;4446;50.876;4.736;2024-01-30T01:27:09;4.57;;;3.00;;
8819;SDS011;4446;50.876;4.736;2024-01-30T01:29:36;4.68;;;3.30;;
8819;SDS011;4446;50.876;4.736;2024-01-30T01:32:04;6.10;;;3.55;;
8819;SDS011;4446;50.876;4.736;2024-01-30T01:34:31;4.80;;;3.38;;
8819;SDS011;4446;50.876;4.736;2024-01-30T01:36:59;3.88;;;2.97;;
8819;SDS011;4446;50.876;4.736;2024-01-30T01:39:27;4.68;;;3.08;;
8819;SDS011;4446;50.876;4.736;2024-01-30T01:41:54;4.80;;;3.13;;
8819;SDS011;4446;50.876;4.736;2024-01-30T01:44:21;5.57;;;3.35;;
8819;SDS011;4446;50.876;4.736;2024-01-30T01:46:48;6.13;;;2.80;;
8819;SDS011;4446;50.876;4.736;2024-01-30T01:49:15;4.03;;;2.80;;
8819;SDS011;4446;50.876;4.736;2024-01-30T01:51:42;4.13;;;2.75;;
8819;SDS011;4446;50.876;4.736;2024-01-30T01:54:10;5.30;;;3.35;;
8819;SDS011;4446;50.876;4.736;2024-01-30T01:56:39;4.28;;;2.75;;
8819;SDS011;4446;50.876;4.736;2024-01-30T01:59:09;6.30;;;3.28;;
8819;SDS011;4446;50.876;4.736;2024-01-30T02:01:36;5.35;;;2.95;;
8819;SDS011;4446;50.876;4.736;2024-01-30T02:04:06;4.28;;;3.05;;
8819;SDS011;4446;50.876;4.736;2024-01-30T02:06:33;4.30;;;2.88;;
8819;SDS011;4446;50.876;4.736;2024-01-30T02:09:01;4.50;;;3.25;;
8819;SDS011;4446;50.876;4.736;2024-01-30T02:11:29;6.28;;;3.30;;
8819;SDS011;4446;50.876;4.736;2024-01-30T02:14:02;5.90;;;3.03;;
8819;SDS011;4446;50.876;4.736;2024-01-30T02:16:30;4.20;;;2.90;;
8819;SDS011;4446;50.876;4.736;2024-01-30T02:18:57;5.15;;;3.35;;
8819;SDS011;4446;50.876;4.736;2024-01-30T02:21:25;3.67;;;2.88;;
8819;SDS011;4446;50.876;4.736;2024-01-30T02:23:52;4.43;;;3.10;;
8819;SDS011;4446;50.876;4.736;2024-01-30T02:26:21;4.20;;;2.97;;
8819;SDS011;4446;50.876;4.736;2024-01-30T02:28:48;4.32;;;3.15;;
8819;SDS011;4446;50.876;4.736;2024-01-30T02:31:15;4.60;;;2.80;;
8819;SDS011;4446;50.876;4.736;2024-01-30T02:33:42;4.03;;;3.15;;
8819;SDS011;4446;50.876;4.736;2024-01-30T02:36:09;3.92;;;2.88;;
8819;SDS011;4446;50.876;4.736;2024-01-30T02:38:38;3.47;;;2.67;;
8819;SDS011;4446;50.876;4.736;2024-01-30T02:41:05;4.35;;;2.85;;
8819;SDS011;4446;50.876;4.736;2024-01-30T02:43:32;3.88;;;2.88;;
8819;SDS011;4446;50.876;4.736;2024-01-30T02:45:59;7.18;;;3.17;;
8819;SDS011;4446;50.876;4.736;2024-01-30T02:48:26;7.35;;;3.20;;
8819;SDS011;4446;50.876;4.736;2024-01-30T02:50:53;3.95;;;2.95;;
8819;SDS011;4446;50.876;4.736;2024-01-30T02:53:20;4.68;;;3.13;;
8819;SDS011;4446;50.876;4.736;2024-01-30T02:55:48;4.15;;;3.20;;
8819;SDS011;4446;50.876;4.736;2024-01-30T02:58:15;4.72;;;3.17;;
8819;SDS011;4446;50.876;4.736;2024-01-30T03:00:42;6.72;;;3.40;;
8819;SDS011;4446;50.876;4.736;2024-01-30T03:03:09;4.47;;;2.80;;
8819;SDS011;4446;50.876;4.736;2024-01-30T03:05:36;4.50;;;3.03;;
8819;SDS011;4446;50.876;4.736;2024-01-30T03:08:04;5.93;;;3.13;;
8819;SDS011;4446;50.876;4.736;2024-01-30T03:10:31;4.95;;;3.30;;
8819;SDS011;4446;50.876;4.736;2024-01-30T03:12:59;5.78;;;2.97;;
8819;SDS011;4446;50.876;4.736;2024-01-30T03:15:26;5.68;;;3.15;;
8819;SDS011;4446;50.876;4.736;2024-01-30T03:17:53;6.53;;;3.53;;
8819;SDS011;4446;50.876;4.736;2024-01-30T03:20:20;4.50;;;2.85;;
8819;SDS011;4446;50.876;4.736;2024-01-30T03:22:47;4.93;;;3.42;;
8819;SDS011;4446;50.876;4.736;2024-01-30T03:25:14;4.13;;;3.00;;
8819;SDS011;4446;50.876;4.736;2024-01-30T03:27:43;3.22;;;2.88;;
8819;SDS011;4446;50.876;4.736;2024-01-30T03:30:11;5.05;;;3.22;;
8819;SDS011;4446;50.876;4.736;2024-01-30T03:32:38;4.55;;;3.05;;
8819;SDS011;4446;50.876;4.736;2024-01-30T03:35:05;5.10;;;2.80;;
8819;SDS011;4446;50.876;4.736;2024-01-30T03:37:33;4.88;;;2.92;;
8819;SDS011;4446;50.876;4.736;2024-01-30T03:40:00;4.93;;;2.92;;
8819;SDS011;4446;50.876;4.736;2024-01-30T03:42:28;5.05;;;2.90;;
8819;SDS011;4446;50.876;4.736;2024-01-30T03:44:56;4.00;;;2.97;;
8819;SDS011;4446;50.876;4.736;2024-01-30T03:47:24;3.75;;;3.20;;
8819;SDS011;4446;50.876;4.736;2024-01-30T03:49:51;3.92;;;2.95;;
8819;SDS011;4446;50.876;4.736;2024-01-30T03:52:18;4.43;;;2.90;;
8819;SDS011;4446;50.876;4.736;2024-01-30T03:54:45;4.75;;;2.55;;
8819;SDS011;4446;50.876;4.736;2024-01-30T03:57:12;6.32;;;3.08;;
8819;SDS011;4446;50.876;4.736;2024-01-30T03:59:41;4.13;;;3.30;;
8819;SDS011;4446;50.876;4.736;2024-01-30T04:02:09;4.32;;;2.90;;
8819;SDS011;4446;50.876;4.736;2024-01-30T04:04:37;4.25;;;3.05;;
8819;SDS011;4446;50.876;4.736;2024-01-30T04:07:04;3.67;;;2.88;;
8819;SDS011;4446;50.876;4.736;2024-01-30T04:09:31;5.88;;;3.08;;
8819;SDS011;4446;50.876;4.736;2024-01-30T04:11:58;5.63;;;3.38;;
8819;SDS011;4446;50.876;4.736;2024-01-30T04:14:28;5.82;;;3.13;;
8819;SDS011;4446;50.876;4.736;2024-01-30T04:16:55;5.07;;;3.05;;
8819;SDS011;4446;50.876;4.736;2024-01-30T04:19:22;3.67;;;2.75;;
8819;SDS011;4446;50.876;4.736;2024-01-30T04:21:50;4.10;;;3.17;;
8819;SDS011;4446;50.876;4.736;2024-01-30T04:24:17;5.57;;;3.20;;
8819;SDS011;4446;50.876;4.736;2024-01-30T04:26:44;5.97;;;2.97;;
8819;SDS011;4446;50.876;4.736;2024-01-30T04:29:11;4.13;;;2.83;;
8819;SDS011;4446;50.876;4.736;2024-01-30T04:31:38;5.60;;;3.10;;
8819;SDS011;4446;50.876;4.736;2024-01-30T04:34:05;4.03;;;2.80;;
8819;SDS011;4446;50.876;4.736;2024-01-30T04:36:32;4.57;;;3.38;;
8819;SDS011;4446;50.876;4.736;2024-01-30T04:39:00;3.75;;;2.50;;
8819;SDS011;4446;50.876;4.736;2024-01-30T04:41:27;4.57;;;2.85;;
8819;SDS011;4446;50.876;4.736;2024-01-30T04:43:56;3.40;;;2.80;;
8819;SDS011;4446;50.876;4.736;2024-01-30T04:46:23;4.43;;;2.90;;
8819;SDS011;4446;50.876;4.736;2024-01-30T04:48:50;4.60;;;2.95;;
8819;SDS011;4446;50.876;4.736;2024-01-30T04:51:17;5.10;;;2.97;;
8819;SDS011;4446;50.876;4.736;2024-01-30T04:53:44;3.72;;;2.78;;
8819;SDS011;4446;50.876;4.736;2024-01-30T04:56:12;4.90;;;2.67;;
8819;SDS011;4446;50.876;4.736;2024-01-30T04:58:39;7.07;;;3.22;;
8819;SDS011;4446;50.876;4.736;2024-01-30T05:01:06;3.20;;;2.65;;
8819;SDS011;4446;50.876;4.736;2024-01-30T05:03:33;3.47;;;2.75;;
8819;SDS011;4446;50.876;4.736;2024-01-30T05:06:01;4.60;;;3.08;;
8819;SDS011;4446;50.876;4.736;2024-01-30T05:08:28;4.10;;;3.38;;
8819;SDS011;4446;50.876;4.736;2024-01-30T05:10:55;4.50;;;2.80;;
8819;SDS011;4446;50.876;4.736;2024-01-30T05:13:23;3.88;;;2.88;;
8819;SDS011;4446;50.876;4.736;2024-01-30T05:15:50;3.85;;;2.88;;
8819;SDS011;4446;50.876;4.736;2024-01-30T05:18:17;6.03;;;3.13;;
8819;SDS011;4446;50.876;4.736;2024-01-30T05:20:44;3.63;;;2.90;;
8819;SDS011;4446;50.876;4.736;2024-01-30T05:23:11;3.80;;;2.75;;
8819;SDS011;4446;50.876;4.736;2024-01-30T05:25:39;3.75;;;2.70;;
8819;SDS011;4446;50.876;4.736;2024-01-30T05:28:06;5.35;;;2.67;;
8819;SDS011;4446;50.876;4.736;2024-01-30T05:30:34;4.97;;;2.95;;
8819;SDS011;4446;50.876;4.736;2024-01-30T05:33:01;4.50;;;3.10;;
8819;SDS011;4446;50.876;4.736;2024-01-30T05:35:29;4.35;;;3.13;;
8819;SDS011;4446;50.876;4.736;2024-01-30T05:37:56;4.05;;;2.85;;
8819;SDS011;4446;50.876;4.736;2024-01-30T05:40:23;6.72;;;3.50;;
8819;SDS011;4446;50.876;4.736;2024-01-30T05:42:50;4.15;;;2.53;;
8819;SDS011;4446;50.876;4.736;2024-01-30T05:45:17;6.25;;;3.15;;
8819;SDS011;4446;50.876;4.736;2024-01-30T05:47:45;5.38;;;3.20;;
8819;SDS011;4446;50.876;4.736;2024-01-30T05:50:12;4.20;;;3.00;;
8819;SDS011;4446;50.876;4.736;2024-01-30T05:52:40;4.78;;;3.30;;
8819;SDS011;4446;50.876;4.736;2024-01-30T05:55:07;4.53;;;2.90;;
8819;SDS011;4446;50.876;4.736;2024-01-30T05:57:34;5.53;;;3.22;;
8819;SDS011;4446;50.876;4.736;2024-01-30T06:00:02;4.55;;;3.13;;
8819;SDS011;4446;50.876;4.736;2024-01-30T06:02:30;3.33;;;2.60;;
8819;SDS011;4446;50.876;4.736;2024-01-30T06:04:59;4.15;;;2.95;;
8819;SDS011;4446;50.876;4.736;2024-01-30T06:07:26;4.32;;;3.03;;
8819;SDS011;4446;50.876;4.736;2024-01-30T06:09:53;5.55;;;2.92;;
8819;SDS011;4446;50.876;4.736;2024-01-30T06:12:20;4.65;;;2.95;;
8819;SDS011;4446;50.876;4.736;2024-01-30T06:14:47;4.95;;;2.72;;
8819;SDS011;4446;50.876;4.736;2024-01-30T06:17:14;3.97;;;2.92;;
8819;SDS011;4446;50.876;4.736;2024-01-30T06:19:41;4.00;;;3.05;;
8819;SDS011;4446;50.876;4.736;2024-01-30T06:22:09;5.97;;;3.10;;
8819;SDS011;4446;50.876;4.736;2024-01-30T06:24:36;6.07;;;3.03;;
8819;SDS011;4446;50.876;4.736;2024-01-30T06:27:03;5.10;;;3.28;;
8819;SDS011;4446;50.876;4.736;2024-01-30T06:29:30;5.43;;;2.88;;
8819;SDS011;4446;50.876;4.736;2024-01-30T06:31:57;5.82;;;2.90;;
8819;SDS011;4446;50.876;4.736;2024-01-30T06:34:25;4.45;;;3.35;;
8819;SDS011;4446;50.876;4.736;2024-01-30T06:36:52;5.05;;;3.08;;
8819;SDS011;4446;50.876;4.736;2024-01-30T06:39:21;5.35;;;3.40;;
8819;SDS011;4446;50.876;4.736;2024-01-30T06:41:48;4.45;;;2.70;;
8819;SDS011;4446;50.876;4.736;2024-01-30T06:44:15;6.82;;;3.33;;
8819;SDS011;4446;50.876;4.736;2024-01-30T06:46:42;4.28;;;3.00;;
8819;SDS011;4446;50.876;4.736;2024-01-30T06:49:09;5.45;;;3.10;;
8819;SDS011;4446;50.876;4.736;2024-01-30T06:51:36;5.32;;;3.58;;
8819;SDS011;4446;50.876;4.736;2024-01-30T06:54:04;5.03;;;3.50;;
8819;SDS011;4446;50.876;4.736;2024-01-30T06:56:50;7.35;;;3.60;;
8819;SDS011;4446;50.876;4.736;2024-01-30T06:59:17;5.25;;;2.95;;
8819;SDS011;4446;50.876;4.736;2024-01-30T07:01:44;7.95;;;3.40;;
8819;SDS011;4446;50.876;4.736;2024-01-30T07:04:11;4.35;;;3.15;;
8819;SDS011;4446;50.876;4.736;2024-01-30T07:06:38;5.43;;;3.53;;
8819;SDS011;4446;50.876;4.736;2024-01-30T07:09:05;4.60;;;3.20;;
8819;SDS011;4446;50.876;4.736;2024-01-30T07:11:33;4.78;;;3.40;;
8819;SDS011;4446;50.876;4.736;2024-01-30T07:14:02;6.20;;;3.30;;
8819;SDS011;4446;50.876;4.736;2024-01-30T07:16:29;5.20;;;3.05;;
8819;SDS011;4446;50.876;4.736;2024-01-30T07:18:57;6.35;;;3.85;;
8819;SDS011;4446;50.876;4.736;2024-01-30T07:21:24;7.57;;;3.70;;
8819;SDS011;4446;50.876;4.736;2024-01-30T07:23:53;5.10;;;3.22;;
8819;SDS011;4446;50.876;4.736;2024-01-30T07:26:20;5.43;;;3.67;;
8819;SDS011;4446;50.876;4.736;2024-01-30T07:28:47;6.30;;;3.25;;
8819;SDS011;4446;50.876;4.736;2024-01-30T07:31:16;4.68;;;3.45;;
8819;SDS011;4446;50.876;4.736;2024-01-30T07:33:45;5.45;;;3.50;;
8819;SDS011;4446;50.876;4.736;2024-01-30T07:36:12;5.13;;;3.40;;
8819;SDS011;4446;50.876;4.736;2024-01-30T07:38:39;4.88;;;3.42;;
8819;SDS011;4446;50.876;4.736;2024-01-30T07:41:06;5.15;;;3.42;;
8819;SDS011;4446;50.876;4.736;2024-01-30T07:43:33;6.28;;;3.70;;
8819;SDS011;4446;50.876;4.736;2024-01-30T07:46:01;6.25;;;3.65;;
8819;SDS011;4446;50.876;4.736;2024-01-30T07:48:29;4.75;;;3.22;;
8819;SDS011;4446;50.876;4.736;2024-01-30T07:50:57;7.35;;;4.07;;
8819;SDS011;4446;50.876;4.736;2024-01-30T07:53:24;6.63;;;3.65;;
8819;SDS011;4446;50.876;4.736;2024-01-30T07:55:51;7.13;;;4.10;;
8819;SDS011;4446;50.876;4.736;2024-01-30T07:58:18;7.38;;;3.38;;
8819;SDS011;4446;50.876;4.736;2024-01-30T08:00:45;6.50;;;3.67;;
8819;SDS011;4446;50.876;4.736;2024-01-30T08:03:12;5.45;;;3.30;;
8819;SDS011;4446;50.876;4.736;2024-01-30T08:05:42;7.57;;;4.05;;
8819;SDS011;4446;50.876;4.736;2024-01-30T08:08:09;5.55;;;4.05;;
8819;SDS011;4446;50.876;4.736;2024-01-30T08:10:36;9.57;;;3.80;;
8819;SDS011;4446;50.876;4.736;2024-01-30T08:13:03;5.95;;;3.17;;
8819;SDS011;4446;50.876;4.736;2024-01-30T08:15:30;7.72;;;4.20;;
8819;SDS011;4446;50.876;4.736;2024-01-30T08:17:57;7.45;;;3.53;;
8819;SDS011;4446;50.876;4.736;2024-01-30T08:20:24;4.72;;;3.03;;
8819;SDS011;4446;50.876;4.736;2024-01-30T08:22:53;6.18;;;3.70;;
8819;SDS011;4446;50.876;4.736;2024-01-30T08:25:20;5.53;;;3.67;;
8819;SDS011;4446;50.876;4.736;2024-01-30T08:27:47;6.55;;;3.45;;
8819;SDS011;4446;50.876;4.736;2024-01-30T08:30:14;4.18;;;3.22;;
8819;SDS011;4446;50.876;4.736;2024-01-30T08:32:41;6.72;;;3.40;;
8819;SDS011;4446;50.876;4.736;2024-01-30T08:35:08;7.28;;;3.55;;
8819;SDS011;4446;50.876;4.736;2024-01-30T08:37:38;5.88;;;3.60;;
8819;SDS011;4446;50.876;4.736;2024-01-30T08:40:07;4.78;;;3.50;;
8819;SDS011;4446;50.876;4.736;2024-01-30T08:42:35;4.43;;;3.05;;
8819;SDS011;4446;50.876;4.736;2024-01-30T08:45:02;5.15;;;3.30;;
8819;SDS011;4446;50.876;4.736;2024-01-30T08:47:30;4.13;;;3.17;;
8819;SDS011;4446;50.876;4.736;2024-01-30T08:49:58;7.18;;;3.42;;
8819;SDS011;4446;50.876;4.736;2024-01-30T08:52:25;4.75;;;3.30;;
8819;SDS011;4446;50.876;4.736;2024-01-30T08:54:52;6.30;;;3.85;;
8819;SDS011;4446;50.876;4.736;2024-01-30T08:57:21;9.57;;;3.40;;
8819;SDS011;4446;50.876;4.736;2024-01-30T08:59:48;5.68;;;4.13;;
8819;SDS011;4446;50.876;4.736;2024-01-30T09:02:15;6.38;;;3.50;;
8819;SDS011;4446;50.876;4.736;2024-01-30T09:04:43;6.93;;;3.70;;
8819;SDS011;4446;50.876;4.736;2024-01-30T09:07:10;4.90;;;3.38;;
8819;SDS011;4446;50.876;4.736;2024-01-30T09:09:38;8.55;;;3.60;;
8819;SDS011;4446;50.876;4.736;2024-01-30T09:12:06;7.13;;;3.92;;
8819;SDS011;4446;50.876;4.736;2024-01-30T09:14:36;6.72;;;3.42;;
8819;SDS011;4446;50.876;4.736;2024-01-30T09:17:03;7.30;;;3.70;;
8819;SDS011;4446;50.876;4.736;2024-01-30T09:19:31;4.68;;;3.40;;
8819;SDS011;4446;50.876;4.736;2024-01-30T09:21:58;5.55;;;3.28;;
8819;SDS011;4446;50.876;4.736;2024-01-30T09:24:26;7.45;;;3.55;;
8819;SDS011;4446;50.876;4.736;2024-01-30T09:26:53;4.47;;;3.40;;
8819;SDS011;4446;50.876;4.736;2024-01-30T09:29:20;4.95;;;3.35;;
8819;SDS011;4446;50.876;4.736;2024-01-30T09:31:49;6.35;;;3.22;;
8819;SDS011;4446;50.876;4.736;2024-01-30T09:34:16;7.78;;;3.88;;
8819;SDS011;4446;50.876;4.736;2024-01-30T09:36:43;5.32;;;3.92;;
8819;SDS011;4446;50.876;4.736;2024-01-30T09:39:10;7.22;;;3.45;;
8819;SDS011;4446;50.876;4.736;2024-01-30T09:41:39;6.10;;;3.25;;
8819;SDS011;4446;50.876;4.736;2024-01-30T09:44:15;4.20;;;3.28;;
8819;SDS011;4446;50.876;4.736;2024-01-30T09:46:42;8.25;;;3.85;;
8819;SDS011;4446;50.876;4.736;2024-01-30T09:49:13;5.30;;;4.05;;
8819;SDS011;4446;50.876;4.736;2024-01-30T09:51:40;5.25;;;3.70;;
8819;SDS011;4446;50.876;4.736;2024-01-30T09:54:08;5.97;;;3.50;;
8819;SDS011;4446;50.876;4.736;2024-01-30T09:56:36;8.30;;;3.72;;
8819;SDS011;4446;50.876;4.736;2024-01-30T09:59:03;8.75;;;3.70;;
8819;SDS011;4446;50.876;4.736;2024-01-30T10:01:30;8.10;;;4.03;;
8819;SDS011;4446;50.876;4.736;2024-01-30T10:03:57;3.85;;;3.20;;
8819;SDS011;4446;50.876;4.736;2024-01-30T10:06:26;6.70;;;3.67;;
8819;SDS011;4446;50.876;4.736;2024-01-30T10:08:54;6.40;;;3.67;;
8819;SDS011;4446;50.876;4.736;2024-01-30T10:11:21;7.32;;;3.78;;
8819;SDS011;4446;50.876;4.736;2024-01-30T10:13:48;10.10;;;4.00;;
8819;SDS011;4446;50.876;4.736;2024-01-30T10:16:15;7.88;;;4.22;;
8819;SDS011;4446;50.876;4.736;2024-01-30T10:18:43;6.75;;;3.90;;
8819;SDS011;4446;50.876;4.736;2024-01-30T10:21:10;4.88;;;3.60;;
8819;SDS011;4446;50.876;4.736;2024-01-30T10:23:39;6.97;;;3.80;;
8819;SDS011;4446;50.876;4.736;2024-01-30T10:26:07;6.25;;;4.00;;
8819;SDS011;4446;50.876;4.736;2024-01-30T10:28:34;5.70;;;4.00;;
8819;SDS011;4446;50.876;4.736;2024-01-30T10:31:01;7.57;;;4.60;;
8819;SDS011;4446;50.876;4.736;2024-01-30T10:33:29;6.93;;;4.53;;
8819;SDS011;4446;50.876;4.736;2024-01-30T10:35:56;9.18;;;3.85;;
8819;SDS011;4446;50.876;4.736;2024-01-30T10:38:27;7.90;;;4.18;;
8819;SDS011;4446;50.876;4.736;2024-01-30T10:40:58;8.77;;;3.70;;
8819;SDS011;4446;50.876;4.736;2024-01-30T10:43:28;6.95;;;4.05;;
8819;SDS011;4446;50.876;4.736;2024-01-30T10:46:01;7.57;;;4.38;;
8819;SDS011;4446;50.876;4.736;2024-01-30T10:48:36;9.70;;;4.63;;
8819;SDS011;4446;50.876;4.736;2024-01-30T10:51:08;9.32;;;5.00;;
8819;SDS011;4446;50.876;4.736;2024-01-30T10:53:35;5.65;;;4.28;;
8819;SDS011;4446;50.876;4.736;2024-01-30T10:56:05;8.00;;;4.55;;
8819;SDS011;4446;50.876;4.736;2024-01-30T10:58:33;7.55;;;4.60;;
8819;SDS011;4446;50.876;4.736;2024-01-30T11:01:00;7.72;;;5.07;;
8819;SDS011;4446;50.876;4.736;2024-01-30T11:03:28;8.85;;;4.45;;
8819;SDS011;4446;50.876;4.736;2024-01-30T11:05:58;7.88;;;4.78;;
8819;SDS011;4446;50.876;4.736;2024-01-30T11:08:26;7.72;;;4.30;;
8819;SDS011;4446;50.876;4.736;2024-01-30T11:10:55;7.65;;;4.88;;
8819;SDS011;4446;50.876;4.736;2024-01-30T11:13:27;9.30;;;5.18;;
8819;SDS011;4446;50.876;4.736;2024-01-30T11:15:59;5.60;;;4.00;;
8819;SDS011;4446;50.876;4.736;2024-01-30T11:18:28;7.40;;;4.55;;
8819;SDS011;4446;50.876;4.736;2024-01-30T11:20:56;8.05;;;3.60;;
8819;SDS011;4446;50.876;4.736;2024-01-30T11:23:23;5.07;;;4.03;;
8819;SDS011;4446;50.876;4.736;2024-01-30T11:25:53;5.63;;;3.65;;
8819;SDS011;4446;50.876;4.736;2024-01-30T11:28:20;8.50;;;3.92;;
8819;SDS011;4446;50.876;4.736;2024-01-30T11:30:49;7.55;;;3.42;;
8819;SDS011;4446;50.876;4.736;2024-01-30T11:33:27;5.28;;;3.60;;
8819;SDS011;4446;50.876;4.736;2024-01-30T11:35:56;7.32;;;3.50;;
8819;SDS011;4446;50.876;4.736;2024-01-30T11:38:25;7.22;;;3.65;;
8819;SDS011;4446;50.876;4.736;2024-01-30T11:40:54;6.00;;;3.58;;
8819;SDS011;4446;50.876;4.736;2024-01-30T11:43:21;4.82;;;3.25;;
8819;SDS011;4446;50.876;4.736;2024-01-30T11:45:50;4.35;;;2.83;;
8819;SDS011;4446;50.876;4.736;2024-01-30T11:48:18;3.80;;;2.63;;
8819;SDS011;4446;50.876;4.736;2024-01-30T11:50:45;6.53;;;2.90;;
8819;SDS011;4446;50.876;4.736;2024-01-30T11:53:13;3.70;;;2.70;;
8819;SDS011;4446;50.876;4.736;2024-01-30T11:55:40;4.50;;;2.70;;
8819;SDS011;4446;50.876;4.736;2024-01-30T11:58:07;2.30;;;2.05;;
8819;SDS011;4446;50.876;4.736;2024-01-30T12:00:34;3.35;;;2.20;;
8819;SDS011;4446;50.876;4.736;2024-01-30T12:03:02;3.50;;;1.90;;
8819;SDS011;4446;50.876;4.736;2024-01-30T12:05:32;5.05;;;1.70;;
8819;SDS011;4446;50.876;4.736;2024-01-30T12:07:59;1.52;;;1.42;;
8819;SDS011;4446;50.876;4.736;2024-01-30T12:10:26;3.03;;;1.50;;
8819;SDS011;4446;50.876;4.736;2024-01-30T12:12:53;3.30;;;1.67;;
8819;SDS011;4446;50.876;4.736;2024-01-30T12:15:21;4.28;;;1.63;;
8819;SDS011;4446;50.876;4.736;2024-01-30T12:17:48;1.75;;;1.17;;
8819;SDS011;4446;50.876;4.736;2024-01-30T12:20:18;4.50;;;1.52;;
8819;SDS011;4446;50.876;4.736;2024-01-30T12:22:47;2.45;;;1.23;;
8819;SDS011;4446;50.876;4.736;2024-01-30T12:25:15;4.00;;;1.20;;
8819;SDS011;4446;50.876;4.736;2024-01-30T12:27:43;0.85;;;0.85;;
8819;SDS011;4446;50.876;4.736;2024-01-30T12:30:12;1.20;;;1.10;;
8819;SDS011;4446;50.876;4.736;2024-01-30T12:32:40;1.10;;;1.00;;
8819;SDS011;4446;50.876;4.736;2024-01-30T12:35:09;1.92;;;1.00;;
8819;SDS011;4446;50.876;4.736;2024-01-30T12:37:38;1.42;;;0.98;;
8819;SDS011;4446;50.876;4.736;2024-01-30T12:40:07;1.85;;;0.80;;
8819;SDS011;4446;50.876;4.736;2024-01-30T12:42:34;0.80;;;0.80;;
8819;SDS011;4446;50.876;4.736;2024-01-30T12:45:02;1.73;;;1.00;;
8819;SDS011;4446;50.876;4.736;2024-01-30T12:47:30;1.00;;;0.80;;
8819;SDS011;4446;50.876;4.736;2024-01-30T12:49:57;1.35;;;0.90;;
8819;SDS011;4446;50.876;4.736;2024-01-30T12:52:24;1.50;;;1.10;;
8819;SDS011;4446;50.876;4.736;2024-01-30T12:54:53;1.70;;;0.90;;
8819;SDS011;4446;50.876;4.736;2024-01-30T12:57:20;0.70;;;0.70;;
8819;SDS011;4446;50.876;4.736;2024-01-30T12:59:47;2.05;;;0.90;;
8819;SDS011;4446;50.876;4.736;2024-01-30T13:02:15;2.35;;;0.70;;
8819;SDS011;4446;50.876;4.736;2024-01-30T13:04:42;1.10;;;0.80;;
8819;SDS011;4446;50.876;4.736;2024-01-30T13:07:10;0.80;;;0.80;;
8819;SDS011;4446;50.876;4.736;2024-01-30T13:09:36;2.95;;;1.00;;
8819;SDS011;4446;50.876;4.736;2024-01-30T13:12:05;1.52;;;0.80;;
8819;SDS011;4446;50.876;4.736;2024-01-30T13:14:33;0.70;;;0.70;;
8819;SDS011;4446;50.876;4.736;2024-01-30T13:17:00;0.90;;;0.70;;
8819;SDS011;4446;50.876;4.736;2024-01-30T13:19:27;1.23;;;0.85;;
8819;SDS011;4446;50.876;4.736;2024-01-30T13:21:54;1.23;;;1.02;;
8819;SDS011;4446;50.876;4.736;2024-01-30T13:24:21;0.82;;;0.80;;
8819;SDS011;4446;50.876;4.736;2024-01-30T13:26:48;1.13;;;0.70;;
8819;SDS011;4446;50.876;4.736;2024-01-30T13:29:16;0.80;;;0.80;;
8819;SDS011;4446;50.876;4.736;2024-01-30T13:31:44;2.35;;;0.75;;
8819;SDS011;4446;50.876;4.736;2024-01-30T13:34:12;0.60;;;0.60;;
8819;SDS011;4446;50.876;4.736;2024-01-30T13:36:39;0.80;;;0.80;;
8819;SDS011;4446;50.876;4.736;2024-01-30T13:39:06;0.70;;;0.70;;
8819;SDS011;4446;50.876;4.736;2024-01-30T13:41:34;0.90;;;0.90;;
8819;SDS011;4446;50.876;4.736;2024-01-30T13:44:01;1.10;;;1.00;;
8819;SDS011;4446;50.876;4.736;2024-01-30T13:46:30;2.78;;;1.00;;
8819;SDS011;4446;50.876;4.736;2024-01-30T13:48:57;0.70;;;0.70;;
8819;SDS011;4446;50.876;4.736;2024-01-30T13:51:24;1.27;;;0.88;;
8819;SDS011;4446;50.876;4.736;2024-01-30T13:53:51;2.30;;;0.80;;
8819;SDS011;4446;50.876;4.736;2024-01-30T13:56:18;1.40;;;0.80;;
8819;SDS011;4446;50.876;4.736;2024-01-30T13:58:46;1.95;;;0.77;;
8819;SDS011;4446;50.876;4.736;2024-01-30T14:01:14;2.10;;;1.00;;
8819;SDS011;4446;50.876;4.736;2024-01-30T14:03:42;0.93;;;0.90;;
8819;SDS011;4446;50.876;4.736;2024-01-30T14:06:09;1.73;;;1.02;;
8819;SDS011;4446;50.876;4.736;2024-01-30T14:08:37;2.00;;;0.90;;
8819;SDS011;4446;50.876;4.736;2024-01-30T14:11:04;4.13;;;1.15;;
8819;SDS011;4446;50.876;4.736;2024-01-30T14:13:31;4.93;;;1.13;;
8819;SDS011;4446;50.876;4.736;2024-01-30T14:15:58;5.07;;;1.10;;
8819;SDS011;4446;50.876;4.736;2024-01-30T14:18:26;2.53;;;0.82;;
8819;SDS011;4446;50.876;4.736;2024-01-30T14:20:54;1.88;;;0.95;;
8819;SDS011;4446;50.876;4.736;2024-01-30T14:23:21;5.05;;;0.90;;
8819;SDS011;4446;50.876;4.736;2024-01-30T14:25:48;0.90;;;0.82;;
8819;SDS011;4446;50.876;4.736;2024-01-30T14:28:16;0.80;;;0.80;;
8819;SDS011;4446;50.876;4.736;2024-01-30T14:30:43;0.82;;;0.82;;
8819;SDS011;4446;50.876;4.736;2024-01-30T14:33:11;1.33;;;0.90;;
8819;SDS011;4446;50.876;4.736;2024-01-30T14:35:38;0.80;;;0.80;;
8819;SDS011;4446;50.876;4.736;2024-01-30T14:38:06;3.38;;;1.00;;
8819;SDS011;4446;50.876;4.736;2024-01-30T14:40:35;2.47;;;0.82;;
8819;SDS011;4446;50.876;4.736;2024-01-30T14:43:02;2.78;;;1.25;;
8819;SDS011;4446;50.876;4.736;2024-01-30T14:45:29;2.67;;;0.80;;
8819;SDS011;4446;50.876;4.736;2024-01-30T14:47:57;0.80;;;0.80;;
8819;SDS011;4446;50.876;4.736;2024-01-30T14:50:25;1.83;;;0.90;;
8819;SDS011;4446;50.876;4.736;2024-01-30T14:52:53;1.45;;;0.90;;
8819;SDS011;4446;50.876;4.736;2024-01-30T14:55:22;1.50;;;0.90;;
8819;SDS011;4446;50.876;4.736;2024-01-30T14:57:49;1.52;;;0.90;;
8819;SDS011;4446;50.876;4.736;2024-01-30T15:00:16;3.08;;;0.98;;
8819;SDS011;4446;50.876;4.736;2024-01-30T15:02:44;0.70;;;0.70;;
8819;SDS011;4446;50.876;4.736;2024-01-30T15:05:12;0.90;;;0.90;;
8819;SDS011;4446;50.876;4.736;2024-01-30T15:07:39;2.38;;;0.77;;
8819;SDS011;4446;50.876;4.736;2024-01-30T15:10:07;1.98;;;1.20;;
8819;SDS011;4446;50.876;4.736;2024-01-30T15:12:37;0.90;;;0.90;;
8819;SDS011;4446;50.876;4.736;2024-01-30T15:15:06;0.98;;;0.75;;
8819;SDS011;4446;50.876;4.736;2024-01-30T15:17:33;1.15;;;1.05;;